Airport View

Enter AWOS ICAO identifier for current METAR.

ex. KFNL

KTTA 031650Z AUTO 00000KT 10SM CLR 32/15 A2996 RMK AO2 T03160154

3 Jul 2020 16:55

Frequency: 120.625

Phone: 919-708-5382

Other Area AWOS: KSCR - KIGX - KHRJ - KRDU

TAF KRDU 031120Z 0312/0412 VRB03KT P6SM SCT250 TEMPO 0317/0321 BKN050